Impacts METAR Board
IDs:

KSLC - Salt Lake City Intl, UT, US

Updated at: 1600 UTC 22 Sep 2019
Potential Impact None Slight Moderate High
Time 22/04Z 22/05Z 22/06Z 22/07Z 22/08Z 22/09Z 22/10Z 22/11Z 22/12Z 22/13Z 22/14Z 22/15Z 22/16Z
Temp54 53 52 52 50 49 48 48 47 47 48 53 57
Dewpt38 36 36 35 37 37 37 36 38 38 38 40 38
Altim30.15 30.15 30.15 30.14 30.15 30.15 30.15 30.16 30.16 30.17 30.18 30.18 30.18
VIS10 10 10 10 10 10 10 10 10 10 10 10 10
CIG-- -- -- -- -- -- -- -- -- -- -- -- --
CoverCLRCLRCLRCLRCLRCLRCLRCLRCLRCLRCLRCLRCLR
FltCatVFRVFRVFRVFRVFRVFRVFRVFRVFRVFRVFRVFRVFR
WX--------------------------
WDir180160150140150150130140140140140150160
WSpd4 6 7 8 6 7 7 7 6 7 6 9 8
WGst-- -- -- -- -- -- -- -- -- -- -- -- --
Raw hourly METARs
KSLC 220354Z 18004KT 10SM CLR 12/03 A3015 RMK AO2 SLP186 T01220033
KSLC 220454Z 16006KT 10SM CLR 12/02 A3015 RMK AO2 SLP186 T01170022
KSLC 220554Z 15007KT 10SM CLR 11/02 A3015 RMK AO2 SLP182 T01110022 10178 20106 50003
KSLC 220654Z 14008KT 10SM CLR 11/02 A3014 RMK AO2 SLP180 T01110017 401830078
KSLC 220754Z 15006KT 10SM CLR 10/03 A3015 RMK AO2 SLP181 T01000028
KSLC 220854Z 15007KT 10SM CLR 09/03 A3015 RMK AO2 SLP183 T00940028 53000
KSLC 220954Z 13007KT 10SM CLR 09/03 A3015 RMK AO2 SLP184 T00890028
KSLC 221054Z 14007KT 10SM CLR 09/02 A3016 RMK AO2 SLP186 T00890022
KSLC 221154Z 14006KT 10SM CLR 08/03 A3016 RMK AO2 SLP188 T00830033 10111 20083 53003
KSLC 221254Z 14007KT 10SM CLR 08/03 A3017 RMK AO2 SLP193 T00830033
KSLC 221354Z 14006KT 10SM CLR 09/03 A3018 RMK AO2 SLP197 T00890033
KSLC 221454Z 15009KT 10SM CLR 12/04 A3018 RMK AO2 SLP197 T01170044 51006
KSLC 221554Z 16008KT 10SM CLR 14/03 A3018 RMK AO2 SLP194 T01390033



Page loaded:  16:37 UTC  |   09:37 AM Pacific  |   10:37 AM Mountain  |   11:37 AM Central  |   12:37 PM Eastern

 

ADVISORIES

FORECASTS

FORECASTS

OBSERVATIONS

USER TOOLS

ABOUT US